Time;durP1;ratioP1;P1;durP2;ratioP2;P2;SDS_P1;SDS_P2;PMS_P1;PMS_P2;Temp;Humidity;BMP_temperature;BMP_pressure;BME280_temperature;BME280_humidity;BME280_pressure;Samples;Min_cycle;Max_cycle;Signal;HPM_P1;HPM_P2
2022/08/14 00:02:03;;;;;;;5.45;4.85;;;29.20;39.50;30.30;100450.00;;;;5031876;28;20189;-44
2022/08/14 00:04:30;;;;;;;5.95;4.78;;;29.20;39.80;30.20;100442.00;;;;5031720;28;20214;-44
2022/08/14 00:06:56;;;;;;;4.82;4.50;;;29.20;39.90;30.20;100445.00;;;;5031949;28;20198;-43
2022/08/14 00:09:22;;;;;;;4.70;4.40;;;29.20;40.00;30.20;100447.00;;;;5032167;28;20171;-43
2022/08/14 00:11:48;;;;;;;5.47;4.97;;;29.20;40.10;30.20;100434.00;;;;5032038;28;20183;-43
2022/08/14 00:14:13;;;;;;;5.25;4.85;;;29.10;40.30;30.10;100422.00;;;;5031993;28;20171;-44
2022/08/14 00:16:39;;;;;;;5.25;4.85;;;29.10;40.50;30.10;100425.00;;;;5031623;28;20282;-43
2022/08/14 00:19:05;;;;;;;5.32;4.90;;;29.00;40.60;30.10;100411.00;;;;5031349;28;20253;-43
2022/08/14 00:21:31;;;;;;;5.18;4.78;;;29.00;40.80;30.10;100424.00;;;;5031856;28;20198;-43
2022/08/14 00:23:57;;;;;;;5.88;5.28;;;29.00;41.00;30.00;100420.00;;;;5032075;28;20182;-44
2022/08/14 00:26:23;;;;;;;5.65;5.15;;;29.00;41.20;30.00;100417.00;;;;5031773;28;20190;-42
2022/08/14 00:28:50;;;;;;;5.72;5.10;;;29.00;41.30;30.00;100425.00;;;;5031699;28;20183;-43
2022/08/14 00:31:16;;;;;;;7.32;5.25;;;29.00;41.50;30.00;100413.00;;;;5030526;28;20610;-42
2022/08/14 00:33:42;;;;;;;5.68;5.18;;;29.00;41.80;30.00;100411.00;;;;5027866;28;20187;-44
2022/08/14 00:36:08;;;;;;;5.72;5.18;;;29.00;41.80;30.00;100412.00;;;;5028572;28;20189;-42
2022/08/14 00:38:34;;;;;;;5.93;5.38;;;29.00;41.90;29.90;100407.00;;;;5028424;28;20271;-43
2022/08/14 00:41:03;;;;;;;6.20;4.97;;;28.90;41.90;29.90;100410.00;;;;5028606;28;20258;-43
2022/08/14 00:43:29;;;;;;;6.57;4.97;;;29.00;42.10;29.90;100413.00;;;;5028558;28;20183;-42
2022/08/14 00:45:55;;;;;;;5.80;5.40;;;29.00;42.10;29.90;100407.00;;;;5028186;28;20256;-43
2022/08/14 00:48:20;;;;;;;6.10;5.60;;;29.00;42.20;29.90;100399.00;;;;5027576;28;20657;-43
2022/08/14 00:50:46;;;;;;;5.75;5.22;;;28.90;42.30;29.90;100399.00;;;;5028345;28;20225;-43
2022/08/14 00:53:15;;;;;;;6.40;5.82;;;28.80;42.40;29.80;100397.00;;;;5028002;28;20186;-43
2022/08/14 00:55:41;;;;;;;6.13;5.63;;;28.80;42.70;29.80;100395.00;;;;5043099;28;20698;-43
2022/08/14 01:00:51;;;;;;;5.68;5.28;;;28.70;43.00;29.70;100376.00;;;;5028416;28;20209;-43
2022/08/14 01:03:18;;;;;;;6.00;5.50;;;28.70;43.00;29.70;100392.00;;;;5043675;28;20254;-43
2022/08/14 01:05:46;;;;;;;6.50;5.90;;;28.70;43.10;29.70;100384.00;;;;5028101;28;20263;-43
2022/08/14 01:08:12;;;;;;;6.22;5.47;;;28.70;43.30;29.70;100386.00;;;;5042785;28;20199;-42
2022/08/14 01:10:49;;;;;;;6.28;5.60;;;28.70;43.40;29.60;100368.00;;;;5029849;28;20171;-43
2022/08/14 01:13:21;;;;;;;5.75;5.35;;;28.70;43.40;29.60;100364.00;;;;5047552;28;20671;-43
2022/08/14 01:15:50;;;;;;;5.82;5.32;;;28.70;43.50;29.60;100364.00;;;;5029383;28;20197;-43
2022/08/14 01:21:02;;;;;;;6.20;5.70;;;28.70;43.70;29.60;100363.00;;;;5027570;28;20198;-43
2022/08/14 01:23:29;;;;;;;5.75;5.35;;;28.60;43.90;29.50;100360.00;;;;5027674;28;20171;-44
2022/08/14 01:25:55;;;;;;;6.07;5.60;;;28.60;44.00;29.50;100300.00;;;;5027658;28;20175;-43
2022/08/14 01:28:21;;;;;;;6.10;5.70;;;28.50;44.10;29.50;100312.00;;;;5027383;28;20589;-43
2022/08/14 01:30:48;;;;;;;6.50;5.60;;;28.60;44.20;29.50;100349.00;;;;5026138;28;20179;-43
2022/08/14 01:33:15;;;;;;;6.30;5.80;;;28.50;44.30;29.40;100350.00;;;;5027362;28;20680;-43
2022/08/14 01:35:44;;;;;;;6.50;6.00;;;28.50;44.50;29.40;100343.00;;;;5027223;28;20230;-43
2022/08/14 01:38:13;;;;;;;5.95;5.55;;;28.50;44.50;29.40;100335.00;;;;5025830;28;20202;-42
2022/08/14 01:40:39;;;;;;;6.25;5.70;;;28.50;44.50;29.40;100324.00;;;;5042515;28;20183;-42
2022/08/14 01:43:16;;;;;;;7.00;6.00;;;28.50;44.60;29.30;100325.00;;;;5026971;28;20250;-42
2022/08/14 01:45:43;;;;;;;6.18;5.63;;;28.40;44.80;29.30;100315.00;;;;5027363;28;20235;-43
2022/08/14 01:48:09;;;;;;;6.15;5.75;;;28.40;45.00;29.30;100312.00;;;;5025618;28;20195;-43
2022/08/14 01:50:35;;;;;;;6.30;5.80;;;28.40;45.00;29.30;100307.00;;;;5026962;28;20167;-42
2022/08/14 01:53:01;;;;;;;6.30;5.70;;;28.40;45.10;29.30;100306.00;;;;5027202;28;20186;-43
2022/08/14 01:55:30;;;;;;;6.43;5.75;;;28.40;45.20;29.20;100305.00;;;;5042275;28;20202;-43
2022/08/14 01:57:56;;;;;;;6.45;5.95;;;28.30;45.20;29.20;100301.00;;;;5026989;28;20298;-43
2022/08/14 02:00:23;;;;;;;6.28;5.70;;;28.30;45.40;29.20;100304.00;;;;5027187;28;20167;-43
2022/08/14 02:02:48;;;;;;;6.15;5.65;;;28.30;45.60;29.20;100306.00;;;;5027321;28;20777;-43
2022/08/14 02:05:14;;;;;;;6.10;5.70;;;28.20;45.60;29.10;100290.00;;;;5026956;28;20155;-43
2022/08/14 02:07:41;;;;;;;6.50;5.90;;;28.20;45.60;29.10;100288.00;;;;5026727;28;20191;-43
2022/08/14 02:10:08;;;;;;;6.13;5.63;;;28.20;45.80;29.10;100283.00;;;;5026945;28;20228;-42
2022/08/14 02:12:34;;;;;;;6.05;5.65;;;28.20;45.80;29.10;100275.00;;;;5026962;28;20179;-43
2022/08/14 02:15:00;;;;;;;6.60;6.10;;;28.20;46.00;29.10;100277.00;;;;5026868;28;20214;-43
2022/08/14 02:17:26;;;;;;;6.60;6.10;;;28.20;46.00;29.00;100277.00;;;;5025168;28;20715;-42
2022/08/14 02:19:52;;;;;;;6.43;5.82;;;28.10;46.00;29.00;100275.00;;;;5042302;28;20607;-43
2022/08/14 02:22:18;;;;;;;6.70;6.10;;;28.10;46.10;29.00;100273.00;;;;5026800;28;20187;-42
2022/08/14 02:24:44;;;;;;;6.57;5.97;;;28.10;46.20;29.00;100273.00;;;;5026691;28;20248;-43
2022/08/14 02:27:10;;;;;;;6.65;6.15;;;28.10;46.30;29.00;100276.00;;;;5026409;28;20657;-43
2022/08/14 02:29:36;;;;;;;6.10;5.57;;;28.10;46.30;29.00;100273.00;;;;5042310;28;20478;-44
2022/08/14 02:32:01;;;;;;;6.78;6.18;;;28.10;46.30;29.00;100277.00;;;;5029284;28;20186;-43
2022/08/14 02:34:31;;;;;;;6.50;5.80;;;28.10;46.40;28.90;100218.00;;;;5029873;28;20175;-42
2022/08/14 02:37:17;;;;;;;6.22;5.82;;;28.10;46.50;28.90;100282.00;;;;5026277;28;20257;-43
2022/08/14 02:39:44;;;;;;;6.70;6.20;;;28.10;46.50;28.90;100288.00;;;;5026330;28;20790;-42
2022/08/14 02:42:13;;;;;;;6.40;5.90;;;28.10;46.50;28.90;100281.00;;;;5026141;28;20669;-43
2022/08/14 02:44:41;;;;;;;6.25;5.78;;;28.10;46.50;28.90;100289.00;;;;5026002;28;20183;-43
2022/08/14 02:47:07;;;;;;;6.07;5.57;;;28.10;46.50;28.90;100298.00;;;;5025981;28;20190;-43
2022/08/14 02:49:33;;;;;;;6.20;5.80;;;28.00;46.50;28.90;100291.00;;;;5026172;28;20760;-43
2022/08/14 02:51:59;;;;;;;6.32;5.82;;;28.10;46.60;28.90;100286.00;;;;5025842;28;20187;-43
2022/08/14 02:54:25;;;;;;;6.53;6.13;;;28.10;46.60;28.90;100296.00;;;;5025939;28;20267;-43
2022/08/14 02:56:55;;;;;;;6.43;5.93;;;28.00;46.60;28.90;100291.00;;;;5025301;28;20195;-43
2022/08/14 02:59:23;;;;;;;6.28;5.85;;;28.10;46.60;28.90;100282.00;;;;5026429;28;20159;-43
2022/08/14 03:01:49;;;;;;;6.25;5.75;;;28.10;46.60;28.90;100290.00;;;;5041504;28;20175;-42
2022/08/14 03:04:15;;;;;;;6.80;6.30;;;28.10;46.60;28.90;100285.00;;;;5025694;28;20718;-43
2022/08/14 03:06:44;;;;;;;6.75;6.15;;;28.10;46.70;28.90;100284.00;;;;5041332;28;20191;-43
2022/08/14 03:09:12;;;;;;;6.88;5.82;;;28.10;46.50;28.90;100291.00;;;;5025652;28;20179;-43
2022/08/14 03:11:38;;;;;;;6.47;5.85;;;28.10;46.50;28.90;100282.00;;;;5040679;28;20249;-42
2022/08/14 03:14:04;;;;;;;6.07;5.60;;;28.10;46.40;28.90;100282.00;;;;5025859;28;20748;-44
2022/08/14 03:16:34;;;;;;;6.13;5.63;;;28.10;46.50;29.00;100287.00;;;;5040782;28;20195;-43
2022/08/14 03:19:00;;;;;;;6.03;5.60;;;28.10;46.50;28.90;100287.00;;;;5025877;28;20186;-43
2022/08/14 03:21:26;;;;;;;6.32;5.90;;;28.10;46.50;28.90;100270.00;;;;5025968;28;20171;-43
2022/08/14 03:26:30;;;;;;;6.35;5.85;;;28.10;46.50;28.90;100280.00;;;;5025946;28;20187;-42
2022/08/14 03:28:57;;;;;;;6.55;5.95;;;28.10;46.60;28.90;100269.00;;;;5025909;28;20186;-41
2022/08/14 03:31:22;;;;;;;7.15;5.72;;;28.10;46.80;28.90;100274.00;;;;5041140;28;20202;-42
2022/08/14 03:33:49;;;;;;;6.82;6.20;;;28.00;46.90;28.90;100278.00;;;;5025738;28;20270;-41
2022/08/14 03:36:18;;;;;;;8.20;5.90;;;28.10;47.00;28.90;100280.00;;;;5025409;28;20187;-42
2022/08/14 03:38:45;;;;;;;6.35;5.88;;;28.10;47.00;28.90;100275.00;;;;5025397;28;20164;-42
2022/08/14 03:41:18;;;;;;;9.45;6.10;;;28.00;46.80;28.90;100274.00;;;;5025363;28;20523;-42
2022/08/14 03:43:49;;;;;;;6.30;5.80;;;28.10;47.00;28.90;100271.00;;;;5025478;28;20230;-42
2022/08/14 03:46:15;;;;;;;6.50;5.82;;;28.10;46.70;28.90;100271.00;;;;5025392;28;20183;-42
2022/08/14 03:48:42;;;;;;;6.65;6.13;;;28.10;46.70;28.90;100273.00;;;;5025134;28;20225;-43
2022/08/14 03:51:09;;;;;;;6.15;5.60;;;28.10;46.90;28.90;100279.00;;;;5025839;28;20190;-42
2022/08/14 03:53:36;;;;;;;7.15;6.50;;;28.10;47.10;28.90;100261.00;;;;5044251;28;20501;-42
2022/08/14 03:56:03;;;;;;;7.53;6.10;;;28.00;47.30;28.80;100273.00;;;;5027585;28;20260;-42
2022/08/14 03:58:31;;;;;;;8.13;6.13;;;28.00;47.20;28.80;100271.00;;;;5025178;28;20685;-43
2022/08/14 04:01:00;;;;;;;9.35;6.15;;;28.00;47.30;28.80;100269.00;;;;5025630;28;20221;-44
2022/08/14 04:03:26;;;;;;;6.78;5.90;;;28.00;47.30;28.80;100269.00;;;;5025651;28;20199;-44
2022/08/14 04:05:52;;;;;;;6.30;5.80;;;28.00;47.30;28.80;100266.00;;;;5025373;28;20471;-43
2022/08/14 04:08:19;;;;;;;6.40;5.90;;;28.00;47.30;28.80;100275.00;;;;5028545;28;20244;-43
2022/08/14 04:10:45;;;;;;;6.60;6.10;;;27.90;47.30;28.80;100266.00;;;;5029038;28;20538;-43
2022/08/14 04:13:11;;;;;;;6.75;6.00;;;27.90;47.30;28.80;100274.00;;;;5044278;28;20167;-43
2022/08/14 04:15:38;;;;;;;6.07;5.57;;;27.90;47.30;28.70;100270.00;;;;5028770;28;20219;-43
2022/08/14 04:18:07;;;;;;;6.50;5.85;;;27.90;47.20;28.70;100271.00;;;;5026136;28;20209;-43
2022/08/14 04:20:34;;;;;;;7.15;5.72;;;27.90;47.30;28.70;100272.00;;;;5028402;28;20174;-43
2022/08/14 04:23:00;;;;;;;6.50;5.90;;;27.90;47.60;28.70;100272.00;;;;5028417;28;20164;-43
2022/08/14 04:25:26;;;;;;;6.40;5.97;;;28.00;47.50;28.70;100274.00;;;;5028337;28;20194;-43
2022/08/14 04:27:53;;;;;;;6.68;6.10;;;27.90;47.50;28.70;100272.00;;;;5028161;28;20648;-43
2022/08/14 04:30:19;;;;;;;6.78;6.05;;;27.90;47.40;28.70;100264.00;;;;5027629;28;20304;-43
2022/08/14 04:32:45;;;;;;;6.13;5.72;;;27.90;47.40;28.70;100259.00;;;;5027752;28;20254;-43
2022/08/14 04:35:11;;;;;;;7.05;6.35;;;27.90;47.60;28.70;100261.00;;;;5028615;28;20475;-43
2022/08/14 04:45:48;;;;;;;7.00;6.22;;;27.90;47.70;28.60;100247.00;;;;5028039;28;20193;-43
2022/08/14 04:48:17;;;;;;;6.78;6.00;;;27.90;47.80;28.60;100242.00;;;;5027538;28;20581;-44
2022/08/14 04:50:50;;;;;;;6.95;5.85;;;27.90;47.90;28.60;100244.00;;;;5028150;28;20217;-43
2022/08/14 04:53:18;;;;;;;6.47;5.97;;;27.90;47.90;28.60;100244.00;;;;5028062;28;20175;-42
2022/08/14 04:55:47;;;;;;;6.97;6.32;;;27.90;48.00;28.60;100248.00;;;;5027909;28;20203;-43
2022/08/14 04:58:23;;;;;;;6.72;6.10;;;27.80;47.90;28.60;100251.00;;;;5027203;28;20282;-43
2022/08/14 05:00:49;;;;;;;6.90;6.20;;;27.80;47.90;28.60;100245.00;;;;5027800;28;20212;-42
2022/08/14 05:03:20;;;;;;;6.57;6.07;;;27.80;47.90;28.60;100249.00;;;;5027310;28;20179;-42
2022/08/14 05:05:53;;;;;;;6.88;6.13;;;27.80;47.90;28.60;100248.00;;;;5027986;28;20163;-43
2022/08/14 05:08:19;;;;;;;6.70;6.20;;;27.80;47.90;28.60;100249.00;;;;5026915;28;20286;-42
2022/08/14 05:10:50;;;;;;;6.50;6.00;;;27.80;47.90;28.60;100241.00;;;;5027535;28;20179;-42
2022/08/14 05:13:17;;;;;;;6.30;5.80;;;27.80;47.90;28.60;100250.00;;;;5027617;28;20167;-42
2022/08/14 05:15:43;;;;;;;6.63;6.13;;;27.80;47.80;28.60;100255.00;;;;5027619;28;20628;-42
2022/08/14 05:18:23;;;;;;;6.55;5.95;;;27.80;48.00;28.50;100249.00;;;;5025193;28;20294;-42
2022/08/14 05:20:51;;;;;;;6.28;5.78;;;27.80;47.90;28.50;100247.00;;;;5026978;28;20269;-42
2022/08/14 05:23:24;;;;;;;6.70;6.20;;;27.80;48.00;28.50;100243.00;;;;5027023;28;20171;-42
2022/08/14 05:25:53;;;;;;;7.03;6.43;;;27.80;48.00;28.50;100243.00;;;;5027013;28;20233;-42
2022/08/14 05:28:21;;;;;;;6.55;6.05;;;27.80;48.00;28.50;100231.00;;;;5027208;28;20294;-42
2022/08/14 05:30:50;;;;;;;7.38;6.60;;;27.80;48.20;28.50;100237.00;;;;5027281;28;20835;-42
2022/08/14 05:33:17;;;;;;;6.57;6.07;;;27.80;48.50;28.50;100235.00;;;;5042418;28;20179;-42
2022/08/14 05:35:44;;;;;;;6.80;6.30;;;27.80;48.50;28.50;100226.00;;;;5030027;28;20582;-41
2022/08/14 05:38:12;;;;;;;7.10;6.18;;;27.70;48.40;28.50;100224.00;;;;5032593;28;20202;-41
2022/08/14 05:40:39;;;;;;;6.88;6.38;;;27.80;48.50;28.50;100223.00;;;;5029041;28;20171;-42
2022/08/14 05:43:05;;;;;;;6.72;6.25;;;27.80;48.50;28.50;100221.00;;;;5026970;28;20159;-42
2022/08/14 05:45:32;;;;;;;6.65;6.25;;;27.80;49.20;28.50;100220.00;;;;5027181;28;20179;-42
2022/08/14 05:47:58;;;;;;;6.78;6.22;;;27.80;48.40;28.50;100217.00;;;;5026593;28;20191;-42
2022/08/14 05:50:24;;;;;;;6.97;6.38;;;27.80;48.30;28.50;100213.00;;;;5025567;28;20163;-42
2022/08/14 05:52:50;;;;;;;6.63;6.22;;;27.80;48.40;28.50;100211.00;;;;5027251;28;20293;-42
2022/08/14 05:55:16;;;;;;;7.07;6.47;;;27.80;48.40;28.50;100210.00;;;;5026794;28;20792;-43
2022/08/14 05:57:52;;;;;;;6.53;6.05;;;27.70;48.50;28.50;100217.00;;;;5026237;28;20261;-43
2022/08/14 06:00:20;;;;;;;6.95;6.30;;;27.70;48.50;28.50;100219.00;;;;5024343;28;20220;-44
2022/08/14 06:02:46;;;;;;;6.50;6.00;;;27.70;48.50;28.40;100219.00;;;;4954162;28;20230;-43
2022/08/14 06:05:12;;;;;;;6.40;6.00;;;27.70;48.30;28.50;100208.00;;;;5006363;28;20293;-43
2022/08/14 06:07:37;;;;;;;6.80;6.30;;;27.70;48.20;28.40;100202.00;;;;5016347;28;20218;-43
2022/08/14 06:10:05;;;;;;;6.68;6.18;;;27.70;48.10;28.40;100197.00;;;;5026366;28;20900;-43
2022/08/14 06:12:31;;;;;;;6.30;5.85;;;27.70;48.50;28.40;100201.00;;;;5026465;28;20595;-42
2022/08/14 06:14:58;;;;;;;6.65;6.13;;;27.70;48.60;28.40;100193.00;;;;5026496;28;20171;-42
2022/08/14 06:17:24;;;;;;;6.50;5.93;;;27.70;48.40;28.40;100198.00;;;;5025645;28;20199;-42
2022/08/14 06:19:50;;;;;;;6.63;6.07;;;27.70;48.40;28.40;100200.00;;;;5015277;28;20705;-42
2022/08/14 06:22:16;;;;;;;6.68;6.18;;;27.70;48.70;28.40;100204.00;;;;5006500;28;20176;-43
2022/08/14 06:24:41;;;;;;;6.20;5.80;;;27.70;48.70;28.40;100206.00;;;;5006332;28;20290;-42
2022/08/14 06:27:07;;;;;;;6.68;6.18;;;27.70;48.90;28.40;100203.00;;;;5005829;28;20199;-42
2022/08/14 06:29:33;;;;;;;6.32;5.93;;;27.70;49.10;28.40;100203.00;;;;5005026;28;20550;-42
2022/08/14 06:31:59;;;;;;;6.70;6.20;;;27.70;49.00;28.40;100187.00;;;;5006088;28;20642;-42
2022/08/14 06:34:25;;;;;;;7.25;6.55;;;27.60;48.90;28.40;100202.00;;;;5006425;28;20616;-42
2022/08/14 06:36:50;;;;;;;7.20;6.30;;;27.70;48.80;28.40;100206.00;;;;5006190;28;20207;-43
2022/08/14 06:39:16;;;;;;;6.97;6.50;;;27.60;48.80;28.40;100202.00;;;;5006356;28;20229;-44
2022/08/14 06:41:42;;;;;;;6.65;6.15;;;27.70;49.00;28.40;100201.00;;;;5006397;28;20179;-43
2022/08/14 06:44:08;;;;;;;6.47;6.07;;;27.70;48.90;28.40;100203.00;;;;5006335;28;20171;-42
2022/08/14 06:46:34;;;;;;;6.30;5.90;;;27.70;48.90;28.40;100202.00;;;;5005767;28;20203;-43
2022/08/14 06:49:00;;;;;;;6.93;6.43;;;27.70;49.10;28.30;100198.00;;;;5005859;28;20701;-42
2022/08/14 06:51:25;;;;;;;6.97;6.50;;;27.70;49.30;28.30;100189.00;;;;5006082;28;20225;-41
2022/08/14 06:53:51;;;;;;;6.40;6.00;;;27.60;49.20;28.30;100182.00;;;;5006188;28;20199;-42
2022/08/14 06:56:17;;;;;;;7.15;6.55;;;27.60;49.10;28.30;100187.00;;;;5006136;28;20200;-42
2022/08/14 06:58:43;;;;;;;6.72;6.22;;;27.60;49.30;28.30;100194.00;;;;5008308;28;20208;-43
2022/08/14 07:06:48;;;;;;;6.53;5.93;;;27.70;49.10;28.30;100181.00;;;;5025474;28;20201;-42
2022/08/14 07:09:14;;;;;;;6.40;5.90;;;27.60;49.50;28.30;100180.00;;;;5025581;28;20631;-43
2022/08/14 07:11:41;;;;;;;6.85;6.28;;;27.60;49.20;28.30;100174.00;;;;5025447;28;20266;-43
2022/08/14 07:14:06;;;;;;;6.88;6.38;;;27.60;49.00;28.20;100169.00;;;;5025414;28;20224;-43
2022/08/14 07:16:32;;;;;;;6.43;6.03;;;27.60;48.90;28.20;100177.00;;;;5025364;28;20282;-43
2022/08/14 07:18:58;;;;;;;6.60;6.20;;;27.70;49.30;28.20;100171.00;;;;5025556;28;20194;-42
2022/08/14 07:21:24;;;;;;;6.72;6.22;;;27.60;49.20;28.20;100153.00;;;;5025665;28;20178;-43
2022/08/14 07:23:49;;;;;;;6.63;6.03;;;27.60;49.60;28.20;100165.00;;;;5025941;28;20175;-43
2022/08/14 07:26:15;;;;;;;6.63;6.10;;;27.60;49.60;28.20;100163.00;;;;5025358;28;20221;-44
2022/08/14 07:28:41;;;;;;;6.65;6.15;;;27.60;49.30;28.20;100157.00;;;;5025143;28;20612;-42
2022/08/14 07:31:09;;;;;;;6.35;5.95;;;27.60;49.10;28.20;100168.00;;;;5025325;28;20216;-42
2022/08/14 07:33:44;;;;;;;6.70;6.20;;;27.70;48.90;28.20;100160.00;;;;5025432;28;20167;-43
2022/08/14 07:36:13;;;;;;;6.95;6.10;;;27.70;49.50;28.20;100098.00;;;;5025106;28;20186;-44
2022/08/14 07:38:42;;;;;;;6.68;6.18;;;27.70;49.30;28.20;100162.00;;;;5009599;28;20644;-42
2022/08/14 07:41:09;;;;;;;6.63;6.13;;;27.70;48.80;28.20;100154.00;;;;5005596;28;20176;-43
2022/08/14 07:43:35;;;;;;;6.25;5.75;;;27.70;48.80;28.20;100156.00;;;;5008040;28;20234;-42
2022/08/14 07:46:02;;;;;;;7.43;5.97;;;27.70;49.20;28.20;100153.00;;;;5009316;28;20349;-42
2022/08/14 07:48:27;;;;;;;6.82;6.30;;;27.70;49.10;28.20;100143.00;;;;5012890;28;20257;-42
2022/08/14 07:50:53;;;;;;;6.60;6.07;;;27.70;49.00;28.20;100145.00;;;;5029004;28;20262;-42
2022/08/14 07:53:20;;;;;;;6.40;5.90;;;27.70;49.50;28.20;100137.00;;;;5028668;28;20332;-42
2022/08/14 07:55:46;;;;;;;6.20;5.70;;;27.70;49.30;28.20;100145.00;;;;5022984;28;20183;-42
2022/08/14 07:58:12;;;;;;;6.90;6.30;;;27.70;49.00;28.20;100141.00;;;;5008735;28;20226;-43
2022/08/14 08:00:38;;;;;;;6.50;6.00;;;27.60;49.60;28.10;100141.00;;;;5009024;28;20176;-42
2022/08/14 08:03:11;;;;;;;6.60;5.97;;;27.60;49.60;28.10;100142.00;;;;4800579;28;20566;-43
2022/08/14 08:05:38;;;;;;;7.03;6.38;;;27.60;49.30;28.10;100139.00;;;;5028471;28;20234;-43
2022/08/14 08:08:04;;;;;;;6.60;6.00;;;27.60;49.70;28.10;100144.00;;;;5027897;28;20670;-43
2022/08/14 08:10:30;;;;;;;6.10;5.70;;;27.60;49.60;28.10;100100.00;;;;5028952;28;20159;-43
2022/08/14 08:13:13;;;;;;;5.72;5.30;;;27.60;49.30;28.10;100144.00;;;;5027587;28;20662;-42
2022/08/14 08:15:42;;;;;;;6.50;6.10;;;27.60;49.20;28.20;100136.00;;;;5028315;28;20166;-42
2022/08/14 08:18:09;;;;;;;6.45;5.95;;;27.60;49.60;28.20;100144.00;;;;5030550;28;20190;-43
2022/08/14 08:20:38;;;;;;;6.18;5.78;;;27.70;49.30;28.20;100146.00;;;;5029008;28;20658;-43
2022/08/14 08:23:05;;;;;;;6.28;5.80;;;27.60;50.10;28.20;100141.00;;;;5027261;28;20572;-43
2022/08/14 08:25:34;;;;;;;6.05;5.65;;;27.60;49.20;28.20;100138.00;;;;5028209;28;20179;-43
2022/08/14 08:28:07;;;;;;;6.28;5.88;;;27.50;49.50;28.20;100130.00;;;;5028124;28;20179;-43
2022/08/14 08:30:33;;;;;;;6.35;5.95;;;27.50;49.40;28.20;100134.00;;;;5028964;28;20250;-43
2022/08/14 08:33:00;;;;;;;5.80;5.40;;;27.60;49.60;28.20;100129.00;;;;5028232;28;20676;-43
2022/08/14 08:35:30;;;;;;;5.97;5.57;;;27.70;49.80;28.20;100141.00;;;;5028092;28;20580;-42
2022/08/14 08:38:04;;;;;;;6.30;5.72;;;27.70;49.60;28.20;100134.00;;;;5027986;28;20191;-43
2022/08/14 08:40:35;;;;;;;6.10;5.70;;;27.70;49.60;28.20;100140.00;;;;5017700;28;20167;-42
2022/08/14 08:43:05;;;;;;;6.38;5.88;;;27.70;49.50;28.20;100139.00;;;;5028284;28;20223;-42
2022/08/14 08:45:31;;;;;;;6.70;6.10;;;27.80;49.70;28.30;100136.00;;;;5028259;28;20746;-43
2022/08/14 08:47:57;;;;;;;6.32;5.82;;;27.80;50.30;28.30;100131.00;;;;5021809;28;20677;-43
2022/08/14 08:50:29;;;;;;;6.00;5.47;;;27.80;51.00;28.30;100142.00;;;;5011178;28;20263;-43
2022/08/14 08:52:56;;;;;;;6.47;5.90;;;27.90;50.20;28.30;100129.00;;;;5007670;28;20171;-43
2022/08/14 08:55:33;;;;;;;6.20;5.70;;;27.90;50.00;28.30;100138.00;;;;5008106;28;20250;-43
2022/08/14 08:58:11;;;;;;;6.30;5.70;;;27.90;50.00;28.30;100131.00;;;;5008083;28;20661;-43
2022/08/14 09:00:39;;;;;;;6.53;5.90;;;27.90;50.00;28.30;100119.00;;;;5008366;28;20167;-42
2022/08/14 09:03:19;;;;;;;6.35;5.75;;;27.90;50.00;28.40;100113.00;;;;5008566;28;20621;-42
2022/08/14 09:05:51;;;;;;;5.97;5.57;;;28.00;49.50;28.40;100113.00;;;;5008399;28;20156;-42
2022/08/14 09:08:24;;;;;;;6.15;5.70;;;28.00;49.90;28.40;100111.00;;;;5007820;28;20471;-42
2022/08/14 09:10:51;;;;;;;6.07;5.57;;;27.90;50.20;28.40;100118.00;;;;5022934;28;20271;-42
2022/08/14 09:13:18;;;;;;;6.15;5.75;;;27.90;49.80;28.40;100118.00;;;;5008355;28;20167;-42
2022/08/14 09:15:46;;;;;;;6.00;5.60;;;28.00;50.00;28.40;100113.00;;;;5008114;28;20184;-42
2022/08/14 09:18:13;;;;;;;5.43;5.05;;;28.00;49.80;28.40;100113.00;;;;5007496;28;20657;-43
2022/08/14 09:20:41;;;;;;;6.05;5.45;;;28.00;49.60;28.40;100113.00;;;;5008047;28;20332;-43
2022/08/14 09:23:08;;;;;;;5.45;4.97;;;28.00;49.10;28.50;100111.00;;;;5007779;28;20249;-42
2022/08/14 09:25:34;;;;;;;5.65;5.15;;;28.00;48.80;28.50;100109.00;;;;5007661;28;20172;-42
2022/08/14 09:28:01;;;;;;;5.65;5.15;;;28.10;48.70;28.50;100115.00;;;;5023216;28;20256;-41
2022/08/14 09:30:27;;;;;;;5.65;5.05;;;28.10;48.70;28.60;100103.00;;;;5007042;28;20168;-42
2022/08/14 09:33:02;;;;;;;6.00;5.60;;;28.10;48.60;28.60;100095.00;;;;4947885;28;20179;-41
2022/08/14 09:35:53;;;;;;;5.88;5.15;;;28.10;48.70;28.60;100087.00;;;;5025284;28;20265;-41
2022/08/14 09:38:27;;;;;;;5.78;5.20;;;28.10;49.10;28.60;100095.00;;;;5031154;28;20196;-41
2022/08/14 09:41:22;;;;;;;14.82;5.95;;;28.10;48.90;28.60;100079.00;;;;5007655;28;20164;-42
2022/08/14 09:43:58;;;;;;;6.05;5.10;;;28.10;49.40;28.60;100078.00;;;;5007119;28;20149;-43
2022/08/14 09:46:26;;;;;;;6.30;5.80;;;28.10;49.60;28.60;100081.00;;;;5005701;28;20235;-42
2022/08/14 09:49:06;;;;;;;7.03;5.57;;;28.20;49.50;28.60;100056.00;;;;5007310;28;20186;-42
2022/08/14 09:51:32;;;;;;;5.88;5.03;;;28.20;49.60;28.60;100063.00;;;;5026014;28;20171;-42
2022/08/14 09:54:10;;;;;;;6.22;5.63;;;28.20;49.60;28.70;100057.00;;;;5026652;28;20175;-43
2022/08/14 09:56:46;;;;;;;5.60;5.18;;;28.20;49.20;28.70;100050.00;;;;5026641;28;20348;-42
2022/08/14 09:59:15;;;;;;;5.95;5.45;;;28.30;48.80;28.70;100049.00;;;;5027004;28;20171;-42
2022/08/14 10:01:42;;;;;;;5.38;4.97;;;28.30;48.60;28.70;100047.00;;;;5026411;28;20178;-42
2022/08/14 10:04:19;;;;;;;6.00;5.00;;;28.40;48.20;28.80;100048.00;;;;5026765;28;20248;-41
2022/08/14 10:06:45;;;;;;;5.70;5.20;;;28.40;47.80;28.80;100052.00;;;;5026070;28;20205;-42
2022/08/14 10:09:11;;;;;;;5.57;5.18;;;28.40;47.50;28.80;100054.00;;;;5026891;28;20182;-42
2022/08/14 10:11:38;;;;;;;5.45;5.05;;;28.50;47.40;28.80;100048.00;;;;5026817;28;20273;-42
2022/08/14 10:14:18;;;;;;;5.78;5.28;;;28.50;47.60;28.90;100047.00;;;;5024633;28;20669;-43
2022/08/14 10:16:46;;;;;;;5.32;4.93;;;28.50;47.40;28.90;100041.00;;;;5025914;28;20212;-43
2022/08/14 10:19:14;;;;;;;5.70;5.30;;;28.50;46.90;28.90;100040.00;;;;5026558;28;20277;-43
2022/08/14 10:21:45;;;;;;;5.47;4.90;;;28.60;46.70;28.90;100038.00;;;;5026967;28;20170;-43
2022/08/14 10:24:21;;;;;;;6.90;5.10;;;28.60;47.10;29.00;100035.00;;;;5026419;28;20804;-43
2022/08/14 10:26:57;;;;;;;5.22;4.82;;;28.60;47.60;29.00;100039.00;;;;5017773;28;20291;-43
2022/08/14 10:29:39;;;;;;;5.57;5.00;;;28.60;46.70;29.00;100024.00;;;;5006713;28;20175;-43
2022/08/14 10:32:07;;;;;;;5.85;5.03;;;28.50;47.90;28.90;100020.00;;;;4924380;28;20171;-42
2022/08/14 10:34:34;;;;;;;6.03;5.22;;;28.40;48.30;28.90;100019.00;;;;5026283;28;20171;-42
2022/08/14 10:37:09;;;;;;;7.88;5.35;;;28.40;48.50;28.80;100016.00;;;;5025943;28;20210;-44
2022/08/14 10:39:36;;;;;;;6.57;4.78;;;28.40;48.50;28.90;100006.00;;;;5025935;28;20198;-42
2022/08/14 10:42:10;;;;;;;5.85;5.25;;;28.40;48.60;28.90;100006.00;;;;5026011;28;20202;-42
2022/08/14 10:44:48;;;;;;;7.13;5.15;;;28.40;48.20;28.90;100007.00;;;;5025733;28;20770;-42
2022/08/14 10:47:14;;;;;;;8.35;5.28;;;28.50;48.40;28.90;100004.00;;;;5025517;28;20202;-43
2022/08/14 10:49:58;;;;;;;5.63;4.70;;;28.50;48.10;29.00;99995.00;;;;5025864;28;20682;-43
2022/08/14 10:52:31;;;;;;;5.07;4.60;;;28.60;47.60;29.00;99997.00;;;;5025901;28;20198;-42
2022/08/14 10:55:12;;;;;;;6.22;4.75;;;28.50;47.40;29.00;99989.00;;;;5025795;28;20183;-43
2022/08/14 10:57:49;;;;;;;5.28;4.78;;;28.60;47.80;29.00;99985.00;;;;5024390;28;20285;-43
2022/08/14 11:00:20;;;;;;;5.18;4.68;;;28.60;47.60;29.10;99990.00;;;;5004937;28;20549;-43
2022/08/14 11:03:08;;;;;;;6.53;5.13;;;28.70;47.70;29.10;99987.00;;;;5006776;28;20210;-43
2022/08/14 11:05:46;;;;;;;6.40;4.88;;;28.80;46.70;29.10;99992.00;;;;5005760;28;20151;-43
2022/08/14 11:08:15;;;;;;;5.38;4.78;;;28.90;46.20;29.20;99974.00;;;;5005563;28;20191;-43
2022/08/14 11:10:54;;;;;;;4.95;4.60;;;29.00;46.20;29.30;99977.00;;;;5005839;28;20787;-43
2022/08/14 11:13:28;;;;;;;5.32;4.93;;;29.00;45.90;29.30;99971.00;;;;5006027;28;20155;-42
2022/08/14 11:15:59;;;;;;;5.20;4.80;;;29.10;45.20;29.30;99968.00;;;;5003662;28;20710;-42